createdAt,value
2023-04-26T00:01:35.779Z,100645.16
2023-04-26T00:04:03.101Z,100648.63
2023-04-26T00:06:32.240Z,100647.75
2023-04-26T00:08:58.767Z,100652.38
2023-04-26T00:11:25.367Z,100655.81
2023-04-26T00:13:51.899Z,100658.34
2023-04-26T00:16:20.216Z,100653.19
2023-04-26T00:18:46.819Z,100659.44
2023-04-26T00:21:14.783Z,100660.34
2023-04-26T00:23:42.231Z,100663.66
2023-04-26T00:26:08.862Z,100664.59
2023-04-26T00:28:35.372Z,100658.66
2023-04-26T00:31:02.026Z,100662.72
2023-04-26T00:33:28.837Z,100662.03
2023-04-26T00:35:56.300Z,100658.63
2023-04-26T00:38:22.900Z,100657.63
2023-04-26T00:40:51.219Z,100659.44
2023-04-26T00:43:18.043Z,100666.53
2023-04-26T00:45:44.902Z,100662.84
2023-04-26T00:48:12.193Z,100661.03
2023-04-26T00:50:38.936Z,100666.22
2023-04-26T00:53:06.174Z,100661.25
2023-04-26T00:55:34.270Z,100671.00
2023-04-26T00:58:01.188Z,100665.94
2023-04-26T01:00:28.001Z,100656.19
2023-04-26T01:02:54.716Z,100666.66
2023-04-26T01:05:21.720Z,100663.22
2023-04-26T01:07:48.288Z,100656.22
2023-04-26T01:10:14.961Z,100657.03
2023-04-26T01:12:41.523Z,100661.53
2023-04-26T01:15:11.833Z,100668.50
2023-04-26T01:17:46.254Z,100668.53
2023-04-26T01:20:14.107Z,100665.25
2023-04-26T01:22:42.377Z,100670.44
2023-04-26T01:25:12.134Z,100668.72
2023-04-26T01:27:38.986Z,100673.00
2023-04-26T01:30:05.948Z,100671.34
2023-04-26T01:32:32.526Z,100668.59
2023-04-26T01:34:59.838Z,100670.44
2023-04-26T01:37:26.530Z,100667.69
2023-04-26T01:39:53.155Z,100670.56
2023-04-26T01:42:20.145Z,100674.81
2023-04-26T01:44:46.776Z,100666.84
2023-04-26T01:47:13.331Z,100676.53
2023-04-26T01:49:40.017Z,100682.63
2023-04-26T01:52:06.565Z,100680.75
2023-04-26T01:54:33.128Z,100679.09
2023-04-26T01:57:00.558Z,100680.84
2023-04-26T01:59:27.728Z,100689.72
2023-04-26T02:01:56.593Z,100687.84
2023-04-26T02:04:24.321Z,100678.22
2023-04-26T02:06:50.949Z,100683.47
2023-04-26T02:09:18.366Z,100680.94
2023-04-26T02:11:45.224Z,100684.41
2023-04-26T02:14:12.006Z,100682.75
2023-04-26T02:16:39.662Z,100690.63
2023-04-26T02:19:10.972Z,100691.28
2023-04-26T02:21:54.993Z,100689.72
2023-04-26T02:24:23.249Z,100693.94
2023-04-26T02:26:50.056Z,100689.75
2023-04-26T02:29:16.728Z,100697.53
2023-04-26T02:31:43.450Z,100695.91
2023-04-26T02:34:10.229Z,100690.69
2023-04-26T02:36:37.075Z,100691.53
2023-04-26T02:39:03.785Z,100691.59
2023-04-26T02:41:31.652Z,100686.53
2023-04-26T02:43:58.317Z,100691.66
2023-04-26T02:46:25.055Z,100684.75
2023-04-26T02:48:52.043Z,100693.31
2023-04-26T02:51:19.251Z,100688.09
2023-04-26T02:53:45.976Z,100688.19
2023-04-26T02:56:12.583Z,100689.88
2023-04-26T02:58:39.194Z,100689.75
2023-04-26T03:01:05.987Z,100691.50
2023-04-26T03:03:32.795Z,100685.44
2023-04-26T03:05:59.482Z,100694.13
2023-04-26T03:08:26.113Z,100689.06
2023-04-26T03:10:54.978Z,100689.72
2023-04-26T03:13:24.776Z,100702.19
2023-04-26T03:15:53.730Z,100700.50
2023-04-26T03:18:21.982Z,100692.69
2023-04-26T03:20:50.793Z,100696.19
2023-04-26T03:23:17.466Z,100701.41
2023-04-26T03:25:44.081Z,100695.31
2023-04-26T03:28:10.687Z,100697.06
2023-04-26T03:30:37.273Z,100697.03
2023-04-26T03:33:07.195Z,100695.34
2023-04-26T03:35:33.826Z,100694.53
2023-04-26T03:38:00.563Z,100691.88
2023-04-26T03:40:27.276Z,100690.25
2023-04-26T03:42:53.932Z,100688.44
2023-04-26T03:45:21.619Z,100692.81
2023-04-26T03:47:48.189Z,100695.50
2023-04-26T03:50:14.836Z,100683.28
2023-04-26T03:52:41.419Z,100695.41
2023-04-26T03:55:10.168Z,100691.91
2023-04-26T03:57:38.072Z,100698.91
2023-04-26T04:00:15.068Z,100693.63
2023-04-26T04:02:44.500Z,100692.81
2023-04-26T04:05:17.830Z,100691.81
2023-04-26T04:07:44.501Z,100698.84
2023-04-26T04:10:11.213Z,100688.47
2023-04-26T04:12:39.193Z,100684.06
2023-04-26T04:15:08.352Z,100696.22
2023-04-26T04:17:38.819Z,100692.81
2023-04-26T04:20:11.241Z,100700.63
2023-04-26T04:22:39.753Z,100698.00
2023-04-26T04:25:13.846Z,100698.84
2023-04-26T04:27:45.226Z,100695.41
2023-04-26T04:30:12.529Z,100701.63
2023-04-26T04:32:40.395Z,100698.72
2023-04-26T04:35:07.688Z,100693.56
2023-04-26T04:37:34.991Z,100700.44
2023-04-26T04:40:03.378Z,100698.66
2023-04-26T04:42:32.755Z,100703.84
2023-04-26T04:45:00.557Z,100700.38
2023-04-26T04:47:30.367Z,100706.47
2023-04-26T04:49:57.009Z,100718.59
2023-04-26T04:52:24.567Z,100714.34
2023-04-26T04:54:51.356Z,100714.31
2023-04-26T04:57:18.861Z,100722.03
2023-04-26T04:59:47.421Z,100712.44
2023-04-26T05:02:14.187Z,100716.56
2023-04-26T05:04:41.196Z,100713.91
2023-04-26T05:07:07.920Z,100722.72
2023-04-26T05:09:35.518Z,100724.44
2023-04-26T05:12:03.579Z,100718.97
2023-04-26T05:14:31.233Z,100718.94
2023-04-26T05:16:58.606Z,100733.00
2023-04-26T05:19:26.437Z,100731.00
2023-04-26T05:21:53.326Z,100728.34
2023-04-26T05:24:20.100Z,100737.03
2023-04-26T05:26:47.000Z,100730.16
2023-04-26T05:29:39.728Z,100737.78
2023-04-26T05:32:29.056Z,100737.75
2023-04-26T05:35:10.481Z,100740.53
2023-04-26T05:37:37.212Z,100745.84
2023-04-26T05:40:05.193Z,100748.31
2023-04-26T05:42:32.498Z,100755.22
2023-04-26T05:45:01.905Z,100756.91
2023-04-26T05:47:28.612Z,100754.34
2023-04-26T05:49:55.215Z,100756.13
2023-04-26T05:52:21.886Z,100764.91
2023-04-26T05:54:49.560Z,100761.38
2023-04-26T05:57:16.269Z,100755.22
2023-04-26T05:59:43.291Z,100759.47
2023-04-26T06:02:10.441Z,100764.03
2023-04-26T06:04:37.295Z,100762.06
2023-04-26T06:07:07.782Z,100758.28
2023-04-26T06:09:34.424Z,100759.81
2023-04-26T06:12:02.315Z,100761.31
2023-04-26T06:14:31.053Z,100755.75
2023-04-26T06:17:04.004Z,100759.50
2023-04-26T06:19:30.947Z,100762.66
2023-04-26T06:21:57.592Z,100763.03
2023-04-26T06:24:33.810Z,100754.19
2023-04-26T06:27:00.544Z,100760.13
2023-04-26T06:29:30.369Z,100772.78
2023-04-26T06:31:57.203Z,100775.25
2023-04-26T06:34:25.431Z,100766.59
2023-04-26T06:36:52.229Z,100753.53
2023-04-26T06:39:19.481Z,100766.50
2023-04-26T06:41:46.325Z,100760.19
2023-04-26T06:44:21.763Z,100759.16
2023-04-26T06:46:49.518Z,100760.69
2023-04-26T06:49:16.104Z,100766.59
2023-04-26T06:51:42.753Z,100761.81
2023-04-26T06:54:11.702Z,100765.41
2023-04-26T06:56:38.296Z,100765.31
2023-04-26T06:59:06.549Z,100754.59
2023-04-26T07:01:34.733Z,100756.22
2023-04-26T07:04:03.794Z,100760.88
2023-04-26T07:06:31.549Z,100762.44
2023-04-26T07:09:01.249Z,100766.16
2023-04-26T07:11:28.112Z,100772.53
2023-04-26T07:13:55.699Z,100775.72
2023-04-26T07:16:22.706Z,100773.63
2023-04-26T07:18:49.391Z,100776.25
2023-04-26T07:21:16.356Z,100774.69
2023-04-26T07:23:42.907Z,100784.84
2023-04-26T07:26:12.485Z,100784.06
2023-04-26T07:28:39.042Z,100785.28
2023-04-26T07:31:07.190Z,100787.44
2023-04-26T07:33:35.689Z,100773.16
2023-04-26T07:36:02.469Z,100794.16
2023-04-26T07:38:29.005Z,100776.41
2023-04-26T07:40:55.640Z,100779.47
2023-04-26T07:43:23.229Z,100781.38
2023-04-26T07:45:50.195Z,100778.38
2023-04-26T07:48:16.961Z,100786.50
2023-04-26T07:50:43.650Z,100779.28
2023-04-26T07:53:10.259Z,100790.41
2023-04-26T07:55:37.672Z,100780.81
2023-04-26T07:58:04.587Z,100790.06
2023-04-26T08:00:31.278Z,100791.97
2023-04-26T08:02:58.258Z,100782.50
2023-04-26T08:05:25.671Z,100793.47
2023-04-26T08:07:52.428Z,100801.06
2023-04-26T08:10:19.068Z,100784.72
2023-04-26T08:12:45.624Z,100786.53
2023-04-26T08:15:13.580Z,100786.00
2023-04-26T08:17:40.343Z,100784.19
2023-04-26T08:20:09.584Z,100785.28
2023-04-26T08:22:36.391Z,100789.25
2023-04-26T08:25:04.671Z,100787.88
2023-04-26T08:27:31.974Z,100792.47
2023-04-26T08:29:58.704Z,100795.66
2023-04-26T08:32:28.321Z,100781.06
2023-04-26T08:34:56.450Z,100782.47
2023-04-26T08:37:23.053Z,100783.22
2023-04-26T08:39:49.621Z,100789.81
2023-04-26T08:42:17.305Z,100784.47
2023-04-26T08:44:44.823Z,100777.31
2023-04-26T08:47:36.609Z,100772.84
2023-04-26T08:50:06.614Z,100778.13
2023-04-26T08:52:33.299Z,100773.53
2023-04-26T08:55:00.711Z,100773.50
2023-04-26T08:57:28.270Z,100776.94
2023-04-26T08:59:56.282Z,100776.91
2023-04-26T09:02:24.005Z,100779.13
2023-04-26T09:04:51.870Z,100772.25
2023-04-26T09:07:42.811Z,100777.97
2023-04-26T09:10:10.781Z,100766.25
2023-04-26T09:12:37.567Z,100769.88
2023-04-26T09:15:05.122Z,100765.28
2023-04-26T09:17:32.811Z,100770.53
2023-04-26T09:20:00.670Z,100767.47
2023-04-26T09:22:31.326Z,100776.38
2023-04-26T09:24:58.067Z,100770.84
2023-04-26T09:27:34.909Z,100771.69
2023-04-26T09:30:01.482Z,100766.56
2023-04-26T09:32:43.164Z,100775.44
2023-04-26T09:35:18.260Z,100779.72
2023-04-26T09:37:59.095Z,100767.31
2023-04-26T09:40:28.211Z,100771.53
2023-04-26T09:43:01.064Z,100775.72
2023-04-26T09:45:28.533Z,100774.50
2023-04-26T09:47:57.353Z,100761.63
2023-04-26T09:50:31.046Z,100776.75
2023-04-26T09:52:57.691Z,100775.41
2023-04-26T09:55:34.651Z,100766.84
2023-04-26T09:58:08.081Z,100783.66
2023-04-26T10:00:34.946Z,100785.13
2023-04-26T10:03:02.190Z,100785.44
2023-04-26T10:05:33.811Z,100790.94
2023-04-26T10:08:00.772Z,100796.03
2023-04-26T10:10:27.386Z,100793.38
2023-04-26T10:12:53.990Z,100792.03
2023-04-26T10:15:20.666Z,100791.94
2023-04-26T10:17:47.264Z,100786.47
2023-04-26T10:20:14.418Z,100787.38
2023-04-26T10:22:47.328Z,100784.69
2023-04-26T10:25:13.938Z,100776.25
2023-04-26T10:27:43.738Z,100775.78
2023-04-26T10:30:12.283Z,100774.28
2023-04-26T10:32:57.060Z,100776.59
2023-04-26T10:35:24.983Z,100785.47
2023-04-26T10:38:01.147Z,100783.38
2023-04-26T10:40:37.282Z,100790.63
2023-04-26T10:43:10.239Z,100786.38
2023-04-26T10:45:38.234Z,100782.84
2023-04-26T10:48:33.825Z,100780.69
2023-04-26T10:51:08.427Z,100784.25
2023-04-26T10:53:44.189Z,100785.88
2023-04-26T10:56:10.921Z,100779.06
2023-04-26T10:58:41.210Z,100781.66
2023-04-26T11:01:21.212Z,100776.66
2023-04-26T11:03:57.527Z,100776.66
2023-04-26T11:06:27.266Z,100778.41
2023-04-26T11:08:54.657Z,100775.16
2023-04-26T11:11:26.439Z,100779.31
2023-04-26T11:13:53.113Z,100775.69
2023-04-26T11:16:19.766Z,100775.78
2023-04-26T11:18:47.535Z,100778.72
2023-04-26T11:21:17.866Z,100775.50
2023-04-26T11:23:53.104Z,100781.00
2023-04-26T11:26:19.692Z,100786.03
2023-04-26T11:28:46.543Z,100788.09
2023-04-26T11:31:14.523Z,100781.53
2023-04-26T11:33:50.813Z,100777.56
2023-04-26T11:36:22.287Z,100773.69
2023-04-26T11:38:51.163Z,100771.22
2023-04-26T11:41:17.860Z,100773.19
2023-04-26T11:43:44.450Z,100772.06
2023-04-26T11:46:11.227Z,100765.88
2023-04-26T11:48:38.701Z,100758.03
2023-04-26T11:51:07.350Z,100762.75
2023-04-26T11:53:43.627Z,100766.31
2023-04-26T11:56:23.120Z,100770.31
2023-04-26T11:58:53.125Z,100779.28
2023-04-26T12:01:23.289Z,100771.53
2023-04-26T12:03:51.653Z,100774.38
2023-04-26T12:06:18.436Z,100775.94
2023-04-26T12:08:49.972Z,100778.72
2023-04-26T12:11:17.170Z,100789.59
2023-04-26T12:13:43.729Z,100786.78
2023-04-26T12:16:22.860Z,100780.50
2023-04-26T12:18:52.959Z,100783.09
2023-04-26T12:21:19.960Z,100784.94
2023-04-26T12:23:57.578Z,100782.78
2023-04-26T12:26:40.184Z,100782.03
2023-04-26T12:29:06.787Z,100788.22
2023-04-26T12:31:33.340Z,100792.69
2023-04-26T12:34:00.000Z,100786.38
2023-04-26T12:36:26.588Z,100788.09
2023-04-26T12:38:53.146Z,100783.38
2023-04-26T12:41:19.819Z,100779.06
2023-04-26T12:43:46.498Z,100779.41
2023-04-26T12:46:13.126Z,100767.38
2023-04-26T12:48:39.762Z,100764.94
2023-04-26T12:51:06.952Z,100769.47
2023-04-26T12:53:33.956Z,100764.06
2023-04-26T12:56:00.535Z,100769.31
2023-04-26T12:58:28.736Z,100764.22
2023-04-26T13:00:55.352Z,100768.72
2023-04-26T13:03:22.075Z,100764.50
2023-04-26T13:05:48.765Z,100773.34
2023-04-26T13:08:15.673Z,100774.63
2023-04-26T13:10:42.873Z,100783.19
2023-04-26T13:13:09.595Z,100773.00
2023-04-26T13:15:39.632Z,100767.16
2023-04-26T13:18:08.954Z,100774.28
2023-04-26T13:20:36.301Z,100771.50
2023-04-26T13:23:05.956Z,100775.09
2023-04-26T13:25:32.532Z,100781.06
2023-04-26T13:27:59.222Z,100783.94
2023-04-26T13:30:25.854Z,100776.53
2023-04-26T13:32:52.663Z,100785.72
2023-04-26T13:35:21.554Z,100793.41
2023-04-26T13:37:48.196Z,100797.63
2023-04-26T13:40:14.839Z,100786.25
2023-04-26T13:42:41.513Z,100790.28
2023-04-26T13:45:10.350Z,100785.34
2023-04-26T13:47:37.076Z,100776.84
2023-04-26T13:50:04.358Z,100782.28
2023-04-26T13:52:31.262Z,100788.75
2023-04-26T13:54:57.819Z,100795.88
2023-04-26T13:57:24.428Z,100790.81
2023-04-26T13:59:51.167Z,100793.03
2023-04-26T14:02:18.036Z,100798.34
2023-04-26T14:04:45.021Z,100794.03
2023-04-26T14:07:11.744Z,100792.31
2023-04-26T14:09:38.290Z,100799.06
2023-04-26T14:12:08.644Z,100793.28
2023-04-26T14:14:37.146Z,100799.31
2023-04-26T14:17:03.841Z,100791.38
2023-04-26T14:19:30.611Z,100801.59
2023-04-26T14:21:57.222Z,100789.03
2023-04-26T14:24:24.662Z,100789.63
2023-04-26T14:26:51.587Z,100789.94
2023-04-26T14:29:20.061Z,100781.72
2023-04-26T14:31:46.664Z,100790.91
2023-04-26T14:34:13.518Z,100789.59
2023-04-26T14:36:40.129Z,100790.03
2023-04-26T14:39:07.386Z,100798.16
2023-04-26T14:41:34.017Z,100794.31
2023-04-26T14:44:00.792Z,100792.38
2023-04-26T14:46:27.676Z,100792.06
2023-04-26T14:48:55.270Z,100802.88
2023-04-26T14:51:21.786Z,100799.06
2023-04-26T14:53:48.405Z,100798.84
2023-04-26T14:56:15.109Z,100798.34
2023-04-26T14:58:41.904Z,100791.94
2023-04-26T15:01:09.342Z,100793.63
2023-04-26T15:03:36.337Z,100794.03
2023-04-26T15:06:03.151Z,100801.69
2023-04-26T15:08:30.117Z,100799.44
2023-04-26T15:10:56.684Z,100798.78
2023-04-26T15:13:23.255Z,100791.56
2023-04-26T15:15:49.760Z,100795.09
2023-04-26T15:18:16.561Z,100807.25
2023-04-26T15:20:43.137Z,100806.88
2023-04-26T15:23:10.512Z,100802.88
2023-04-26T15:25:37.312Z,100797.88
2023-04-26T15:28:04.192Z,100794.63
2023-04-26T15:30:30.784Z,100799.44
2023-04-26T15:32:59.735Z,100799.44
2023-04-26T15:35:27.154Z,100798.09
2023-04-26T15:37:54.148Z,100795.09
2023-04-26T15:40:24.730Z,100799.66
2023-04-26T15:42:52.213Z,100797.50
2023-04-26T15:45:19.132Z,100800.47
2023-04-26T15:47:46.364Z,100803.97
2023-04-26T15:50:13.127Z,100808.16
2023-04-26T15:52:40.751Z,100814.97
2023-04-26T15:55:07.734Z,100814.38
2023-04-26T15:57:35.137Z,100818.84
2023-04-26T16:00:01.887Z,100816.44
2023-04-26T16:02:31.223Z,100812.69
2023-04-26T16:04:58.056Z,100813.38
2023-04-26T16:07:24.752Z,100815.72
2023-04-26T16:09:51.310Z,100822.44
2023-04-26T16:12:18.035Z,100819.69
2023-04-26T16:14:44.592Z,100823.59
2023-04-26T16:17:12.494Z,100816.44
2023-04-26T16:19:39.090Z,100813.66
2023-04-26T16:22:05.868Z,100814.56
2023-04-26T16:24:32.490Z,100812.81
2023-04-26T16:26:59.533Z,100813.34
2023-04-26T16:29:26.172Z,100818.31
2023-04-26T16:31:52.981Z,100814.41
2023-04-26T16:34:19.985Z,100821.09
2023-04-26T16:36:46.833Z,100815.81
2023-04-26T16:39:15.833Z,100811.81
2023-04-26T16:41:43.992Z,100815.16
2023-04-26T16:44:11.199Z,100816.91
2023-04-26T16:46:37.945Z,100816.56
2023-04-26T16:49:09.501Z,100823.03
2023-04-26T16:51:37.121Z,100825.56
2023-04-26T16:54:03.865Z,100817.00
2023-04-26T16:56:30.526Z,100821.03
2023-04-26T16:58:57.593Z,100829.59
2023-04-26T17:01:24.290Z,100836.31
2023-04-26T17:03:54.391Z,100836.75
2023-04-26T17:06:23.533Z,100840.81
2023-04-26T17:08:50.488Z,100846.50
2023-04-26T17:11:17.218Z,100847.06
2023-04-26T17:13:44.133Z,100843.25
2023-04-26T17:16:11.186Z,100843.63
2023-04-26T17:18:40.590Z,100852.63
2023-04-26T17:21:07.482Z,100851.25
2023-04-26T17:23:34.316Z,100847.09
2023-04-26T17:26:01.373Z,100854.47
2023-04-26T17:28:28.082Z,100852.56
2023-04-26T17:30:57.054Z,100849.78
2023-04-26T17:33:27.066Z,100851.06
2023-04-26T17:35:56.901Z,100849.78
2023-04-26T17:38:23.447Z,100848.88
2023-04-26T17:40:53.590Z,100856.41
2023-04-26T17:43:20.650Z,100865.03
2023-04-26T17:45:47.421Z,100861.59
2023-04-26T17:48:14.375Z,100853.31
2023-04-26T17:50:43.258Z,100860.88
2023-04-26T17:53:12.213Z,100858.97
2023-04-26T17:55:38.788Z,100862.56
2023-04-26T17:58:05.403Z,100864.19
2023-04-26T18:00:32.321Z,100866.44
2023-04-26T18:02:59.613Z,100865.72
2023-04-26T18:05:26.454Z,100864.97
2023-04-26T18:07:53.009Z,100860.25
2023-04-26T18:10:19.600Z,100867.50
2023-04-26T18:12:46.376Z,100865.31
2023-04-26T18:15:13.891Z,100863.16
2023-04-26T18:17:41.191Z,100879.91
2023-04-26T18:20:08.279Z,100869.03
2023-04-26T18:22:34.879Z,100871.06
2023-04-26T18:25:03.956Z,100868.84
2023-04-26T18:27:31.171Z,100870.25
2023-04-26T18:29:57.737Z,100871.34
2023-04-26T18:32:24.462Z,100873.56
2023-04-26T18:34:51.418Z,100878.63
2023-04-26T18:37:18.327Z,100879.91
2023-04-26T18:39:45.443Z,100876.63
2023-04-26T18:42:12.105Z,100890.06
2023-04-26T18:44:38.604Z,100884.25
2023-04-26T18:47:05.809Z,100890.28
2023-04-26T18:49:32.544Z,100891.56
2023-04-26T18:51:59.217Z,100888.91
2023-04-26T18:54:28.462Z,100894.34
2023-04-26T18:56:55.109Z,100893.31
2023-04-26T18:59:21.699Z,100896.16
2023-04-26T19:01:49.224Z,100898.66
2023-04-26T19:04:16.208Z,100904.09
2023-04-26T19:06:42.911Z,100898.22
2023-04-26T19:09:14.275Z,100898.00
2023-04-26T19:11:40.920Z,100906.22
2023-04-26T19:14:17.164Z,100903.13
2023-04-26T19:16:52.731Z,100912.31
2023-04-26T19:19:19.876Z,100915.41
2023-04-26T19:21:50.342Z,100915.97
2023-04-26T19:24:19.020Z,100919.03
2023-04-26T19:26:45.549Z,100915.91
2023-04-26T19:29:12.216Z,100919.59
2023-04-26T19:31:41.470Z,100921.56
2023-04-26T19:34:08.096Z,100928.16
2023-04-26T19:36:36.662Z,100923.63
2023-04-26T19:39:04.594Z,100934.34
2023-04-26T19:41:31.115Z,100921.97
2023-04-26T19:43:57.743Z,100925.50
2023-04-26T19:46:24.350Z,100920.34
2023-04-26T19:48:51.387Z,100922.91
2023-04-26T19:51:17.953Z,100923.72
2023-04-26T19:53:44.905Z,100925.44
2023-04-26T19:56:11.424Z,100930.97
2023-04-26T19:58:38.876Z,100931.13
2023-04-26T20:01:06.508Z,100932.66
2023-04-26T20:03:33.452Z,100927.34
2023-04-26T20:06:00.193Z,100931.88
2023-04-26T20:08:28.772Z,100936.69
2023-04-26T20:10:56.889Z,100929.09
2023-04-26T20:13:23.570Z,100934.25
2023-04-26T20:15:50.149Z,100936.28
2023-04-26T20:18:17.014Z,100935.81
2023-04-26T20:20:44.753Z,100936.78
2023-04-26T20:23:11.323Z,100927.81
2023-04-26T20:25:37.905Z,100935.63
2023-04-26T20:28:11.875Z,100939.03
2023-04-26T20:30:38.436Z,100936.47
2023-04-26T20:33:07.216Z,100934.03
2023-04-26T20:35:33.905Z,100937.94
2023-04-26T20:38:00.649Z,100934.50
2023-04-26T20:40:27.583Z,100931.03
2023-04-26T20:42:54.105Z,100939.59
2023-04-26T20:45:20.726Z,100938.41
2023-04-26T20:47:47.305Z,100940.84
2023-04-26T20:50:14.055Z,100940.00
2023-04-26T20:52:40.591Z,100936.72
2023-04-26T20:55:07.518Z,100936.28
2023-04-26T20:57:34.130Z,100938.88
2023-04-26T21:00:00.825Z,100938.81
2023-04-26T21:02:27.531Z,100940.00
2023-04-26T21:04:54.505Z,100934.50
2023-04-26T21:07:21.071Z,100935.91
2023-04-26T21:09:48.059Z,100933.84
2023-04-26T21:12:14.742Z,100936.63
2023-04-26T21:14:41.304Z,100943.03
2023-04-26T21:17:07.921Z,100941.97
2023-04-26T21:19:34.524Z,100942.03
2023-04-26T21:22:01.360Z,100941.78
2023-04-26T21:24:28.036Z,100947.31
2023-04-26T21:26:54.587Z,100944.94
2023-04-26T21:29:21.191Z,100951.94
2023-04-26T21:31:47.790Z,100952.94
2023-04-26T21:34:14.670Z,100953.69
2023-04-26T21:36:41.231Z,100948.34
2023-04-26T21:39:08.105Z,100949.41
2023-04-26T21:41:34.875Z,100945.88
2023-04-26T21:44:02.093Z,100953.91
2023-04-26T21:46:28.666Z,100949.50
2023-04-26T21:48:55.369Z,100950.28
2023-04-26T21:51:21.883Z,100960.00
2023-04-26T21:53:48.541Z,100953.81
2023-04-26T21:56:15.131Z,100957.00
2023-04-26T21:58:41.836Z,100960.19
2023-04-26T22:01:10.052Z,100957.84
2023-04-26T22:03:37.489Z,100962.28
2023-04-26T22:06:04.891Z,100961.50
2023-04-26T22:08:31.612Z,100966.78
2023-04-26T22:10:58.380Z,100966.16
2023-04-26T22:13:25.008Z,100966.09
2023-04-26T22:15:51.744Z,100964.72
2023-04-26T22:18:19.073Z,100963.03
2023-04-26T22:20:45.937Z,100963.94
2023-04-26T22:23:13.883Z,100964.44
2023-04-26T22:25:40.587Z,100969.69
2023-04-26T22:28:07.147Z,100968.03
2023-04-26T22:30:33.782Z,100971.69
2023-04-26T22:33:00.881Z,100978.19
2023-04-26T22:35:27.938Z,100985.41
2023-04-26T22:37:55.120Z,100983.66
2023-04-26T22:40:21.689Z,100990.66
2023-04-26T22:42:48.415Z,100981.25
2023-04-26T22:45:15.070Z,100983.44
2023-04-26T22:47:42.078Z,100982.56
2023-04-26T22:50:11.510Z,100983.66
2023-04-26T22:52:40.528Z,100975.63
2023-04-26T22:55:07.440Z,100983.44
2023-04-26T22:57:34.129Z,100987.88
2023-04-26T23:00:00.842Z,100984.34
2023-04-26T23:02:33.577Z,100985.97
2023-04-26T23:05:00.460Z,100986.69
2023-04-26T23:07:27.070Z,100981.44
2023-04-26T23:09:54.122Z,100987.84
2023-04-26T23:12:23.775Z,100984.03
2023-04-26T23:14:50.686Z,100989.28
2023-04-26T23:17:20.344Z,100991.22
2023-04-26T23:19:47.460Z,100994.75
2023-04-26T23:22:15.606Z,100986.94
2023-04-26T23:24:42.209Z,100987.88
2023-04-26T23:27:08.845Z,100990.00
2023-04-26T23:29:35.650Z,100991.41
2023-04-26T23:32:02.968Z,100997.63
2023-04-26T23:34:29.543Z,100989.63
2023-04-26T23:36:56.066Z,100996.84
2023-04-26T23:39:22.929Z,100996.53
2023-04-26T23:41:51.823Z,100991.41
2023-04-26T23:44:18.428Z,100994.81
2023-04-26T23:46:45.016Z,101002.84
2023-04-26T23:49:11.768Z,101006.31
2023-04-26T23:51:38.375Z,101003.84
2023-04-26T23:54:05.084Z,101007.38
2023-04-26T23:56:31.636Z,101000.22
2023-04-26T23:58:58.384Z,101004.69
